sensor_id;sensor_type;location;lat;lon;timestamp;pressure;altitude;pressure_sealevel;temperature;humidity
82784;BME280;72520;55.762;37.780;2023-12-20T00:01:32;98137.50;;;4.98;74.81
82784;BME280;72520;55.762;37.780;2023-12-20T00:04:36;98127.16;;;5.20;74.54
82784;BME280;72520;55.762;37.780;2023-12-20T00:07:38;98138.75;;;5.18;73.95
82784;BME280;72520;55.762;37.780;2023-12-20T00:10:40;98148.56;;;5.16;74.05
82784;BME280;72520;55.762;37.780;2023-12-20T00:13:43;98150.91;;;5.07;74.78
82784;BME280;72520;55.762;37.780;2023-12-20T00:16:45;98144.91;;;5.05;74.31
82784;BME280;72520;55.762;37.780;2023-12-20T00:19:48;98136.44;;;5.00;74.88
82784;BME280;72520;55.762;37.780;2023-12-20T00:22:51;98143.31;;;4.90;75.24
82784;BME280;72520;55.762;37.780;2023-12-20T00:25:53;98137.72;;;4.95;75.00
82784;BME280;72520;55.762;37.780;2023-12-20T00:28:55;98155.53;;;5.04;74.71
82784;BME280;72520;55.762;37.780;2023-12-20T00:31:57;98159.34;;;5.12;73.74
82784;BME280;72520;55.762;37.780;2023-12-20T00:35:01;98149.63;;;5.13;74.03
82784;BME280;72520;55.762;37.780;2023-12-20T00:38:04;98145.22;;;5.13;73.64
82784;BME280;72520;55.762;37.780;2023-12-20T00:41:07;98153.41;;;5.22;72.95
82784;BME280;72520;55.762;37.780;2023-12-20T00:44:09;98156.91;;;5.22;73.03
82784;BME280;72520;55.762;37.780;2023-12-20T00:47:12;98156.22;;;5.44;72.80
82784;BME280;72520;55.762;37.780;2023-12-20T00:50:15;98157.69;;;5.48;72.15
82784;BME280;72520;55.762;37.780;2023-12-20T00:53:17;98168.66;;;5.42;72.52
82784;BME280;72520;55.762;37.780;2023-12-20T00:56:20;98174.34;;;5.48;72.47
82784;BME280;72520;55.762;37.780;2023-12-20T00:59:22;98154.31;;;5.46;72.40
82784;BME280;72520;55.762;37.780;2023-12-20T01:02:24;98154.63;;;5.41;72.86
82784;BME280;72520;55.762;37.780;2023-12-20T01:05:28;98150.50;;;5.50;72.63
82784;BME280;72520;55.762;37.780;2023-12-20T01:08:30;98143.72;;;5.58;72.83
82784;BME280;72520;55.762;37.780;2023-12-20T01:11:32;98134.63;;;5.62;72.49
82784;BME280;72520;55.762;37.780;2023-12-20T01:14:34;98131.09;;;5.51;73.05
82784;BME280;72520;55.762;37.780;2023-12-20T01:17:36;98134.28;;;5.31;73.34
82784;BME280;72520;55.762;37.780;2023-12-20T01:20:40;98130.09;;;5.28;73.76
82784;BME280;72520;55.762;37.780;2023-12-20T01:23:43;98125.78;;;5.14;74.34
82784;BME280;72520;55.762;37.780;2023-12-20T01:26:46;98120.06;;;5.21;74.41
82784;BME280;72520;55.762;37.780;2023-12-20T01:29:48;98121.25;;;5.17;74.22
82784;BME280;72520;55.762;37.780;2023-12-20T01:32:50;98116.78;;;5.30;73.72
82784;BME280;72520;55.762;37.780;2023-12-20T01:35:54;98117.53;;;5.32;73.30
82784;BME280;72520;55.762;37.780;2023-12-20T01:38:56;98116.66;;;5.31;73.18
82784;BME280;72520;55.762;37.780;2023-12-20T01:41:58;98125.88;;;5.26;73.11
82784;BME280;72520;55.762;37.780;2023-12-20T01:45:00;98126.53;;;5.17;73.77
82784;BME280;72520;55.762;37.780;2023-12-20T01:48:06;98110.59;;;5.18;73.49
82784;BME280;72520;55.762;37.780;2023-12-20T01:51:11;98105.50;;;5.28;73.36
82784;BME280;72520;55.762;37.780;2023-12-20T01:54:13;98096.75;;;5.27;72.87
82784;BME280;72520;55.762;37.780;2023-12-20T01:57:15;98089.53;;;5.05;73.87
82784;BME280;72520;55.762;37.780;2023-12-20T02:00:18;98094.78;;;5.05;73.77
82784;BME280;72520;55.762;37.780;2023-12-20T02:03:24;98088.88;;;5.14;73.11
82784;BME280;72520;55.762;37.780;2023-12-20T02:06:29;98090.88;;;5.24;73.04
82784;BME280;72520;55.762;37.780;2023-12-20T02:09:32;98104.00;;;5.36;72.38
82784;BME280;72520;55.762;37.780;2023-12-20T02:12:34;98098.19;;;5.44;72.01
82784;BME280;72520;55.762;37.780;2023-12-20T02:15:37;98096.19;;;5.47;72.25
82784;BME280;72520;55.762;37.780;2023-12-20T02:18:39;98098.50;;;5.39;72.23
82784;BME280;72520;55.762;37.780;2023-12-20T02:21:45;98094.56;;;5.45;71.99
82784;BME280;72520;55.762;37.780;2023-12-20T02:24:48;98080.44;;;5.46;71.37
82784;BME280;72520;55.762;37.780;2023-12-20T02:27:50;98076.47;;;5.40;71.50
82784;BME280;72520;55.762;37.780;2023-12-20T02:30:52;98070.22;;;5.41;71.46
82784;BME280;72520;55.762;37.780;2023-12-20T02:33:54;98068.72;;;5.50;71.62
82784;BME280;72520;55.762;37.780;2023-12-20T02:36:58;98074.50;;;5.55;71.03
82784;BME280;72520;55.762;37.780;2023-12-20T02:40:00;98067.03;;;5.49;70.33
82784;BME280;72520;55.762;37.780;2023-12-20T02:43:04;98079.72;;;5.44;70.91
82784;BME280;72520;55.762;37.780;2023-12-20T02:46:07;98084.16;;;5.31;71.46
82784;BME280;72520;55.762;37.780;2023-12-20T02:49:09;98092.44;;;5.26;71.46
82784;BME280;72520;55.762;37.780;2023-12-20T02:52:12;98096.75;;;5.27;71.42
82784;BME280;72520;55.762;37.780;2023-12-20T02:55:14;98102.81;;;5.17;72.28
82784;BME280;72520;55.762;37.780;2023-12-20T02:58:17;98104.91;;;5.11;72.20
82784;BME280;72520;55.762;37.780;2023-12-20T03:01:19;98090.03;;;5.10;71.88
82784;BME280;72520;55.762;37.780;2023-12-20T03:04:21;98097.75;;;5.01;72.59
82784;BME280;72520;55.762;37.780;2023-12-20T03:07:25;98090.69;;;5.01;72.42
82784;BME280;72520;55.762;37.780;2023-12-20T03:10:27;98089.00;;;5.00;73.12
82784;BME280;72520;55.762;37.780;2023-12-20T03:13:29;98080.66;;;4.94;72.75
82784;BME280;72520;55.762;37.780;2023-12-20T03:16:31;98087.31;;;4.99;73.13
82784;BME280;72520;55.762;37.780;2023-12-20T03:19:34;98082.25;;;5.09;72.95
82784;BME280;72520;55.762;37.780;2023-12-20T03:22:37;98089.16;;;5.23;72.64
82784;BME280;72520;55.762;37.780;2023-12-20T03:25:40;98080.50;;;5.33;72.02
82784;BME280;72520;55.762;37.780;2023-12-20T03:28:42;98075.34;;;5.19;72.76
82784;BME280;72520;55.762;37.780;2023-12-20T03:31:44;98074.09;;;5.12;73.10
82784;BME280;72520;55.762;37.780;2023-12-20T03:34:47;98088.06;;;5.01;73.98
82784;BME280;72520;55.762;37.780;2023-12-20T03:37:51;98096.38;;;5.08;74.42
82784;BME280;72520;55.762;37.780;2023-12-20T03:40:53;98093.75;;;4.95;74.69
82784;BME280;72520;55.762;37.780;2023-12-20T03:43:55;98079.09;;;4.91;75.11
82784;BME280;72520;55.762;37.780;2023-12-20T03:46:58;98078.59;;;4.86;76.11
82784;BME280;72520;55.762;37.780;2023-12-20T03:50:00;98072.75;;;4.94;75.71
82784;BME280;72520;55.762;37.780;2023-12-20T03:53:05;98093.16;;;4.79;76.11
82784;BME280;72520;55.762;37.780;2023-12-20T03:56:07;98083.97;;;4.72;75.72
82784;BME280;72520;55.762;37.780;2023-12-20T03:59:10;98093.44;;;4.87;75.63
82784;BME280;72520;55.762;37.780;2023-12-20T04:02:12;98093.66;;;4.84;75.38
82784;BME280;72520;55.762;37.780;2023-12-20T04:05:18;98102.28;;;5.11;74.86
82784;BME280;72520;55.762;37.780;2023-12-20T04:08:22;98102.59;;;5.07;74.16
82784;BME280;72520;55.762;37.780;2023-12-20T04:11:24;98091.72;;;5.11;74.09
82784;BME280;72520;55.762;37.780;2023-12-20T04:14:26;98092.38;;;5.02;74.58
82784;BME280;72520;55.762;37.780;2023-12-20T04:17:28;98091.97;;;4.96;74.68
82784;BME280;72520;55.762;37.780;2023-12-20T04:20:31;98097.44;;;5.05;73.93
82784;BME280;72520;55.762;37.780;2023-12-20T04:23:34;98088.06;;;5.01;74.49
82784;BME280;72520;55.762;37.780;2023-12-20T04:26:36;98095.00;;;5.02;74.11
82784;BME280;72520;55.762;37.780;2023-12-20T04:29:39;98093.72;;;5.08;74.07
82784;BME280;72520;55.762;37.780;2023-12-20T04:32:41;98099.53;;;5.13;73.79
82784;BME280;72520;55.762;37.780;2023-12-20T04:35:43;98098.69;;;5.12;74.06
82784;BME280;72520;55.762;37.780;2023-12-20T04:38:48;98103.13;;;5.12;74.13
82784;BME280;72520;55.762;37.780;2023-12-20T04:41:50;98095.75;;;5.17;73.94
82784;BME280;72520;55.762;37.780;2023-12-20T04:44:52;98106.88;;;5.33;73.53
82784;BME280;72520;55.762;37.780;2023-12-20T04:47:55;98101.69;;;5.32;73.51
82784;BME280;72520;55.762;37.780;2023-12-20T04:50:57;98103.75;;;5.16;73.51
82784;BME280;72520;55.762;37.780;2023-12-20T04:54:01;98103.03;;;5.13;73.63
82784;BME280;72520;55.762;37.780;2023-12-20T04:57:04;98116.41;;;5.10;74.00
82784;BME280;72520;55.762;37.780;2023-12-20T05:00:07;98109.69;;;5.06;72.69
82784;BME280;72520;55.762;37.780;2023-12-20T05:03:09;98100.38;;;5.13;72.74
82784;BME280;72520;55.762;37.780;2023-12-20T05:06:12;98109.78;;;5.05;73.51
82784;BME280;72520;55.762;37.780;2023-12-20T05:09:16;98110.09;;;4.88;74.57
82784;BME280;72520;55.762;37.780;2023-12-20T05:12:19;98110.72;;;4.91;74.49
82784;BME280;72520;55.762;37.780;2023-12-20T05:15:21;98116.53;;;4.84;74.69
82784;BME280;72520;55.762;37.780;2023-12-20T05:18:23;98118.53;;;4.80;74.58
82784;BME280;72520;55.762;37.780;2023-12-20T05:21:25;98106.72;;;4.73;74.81
82784;BME280;72520;55.762;37.780;2023-12-20T05:24:29;98117.91;;;4.77;74.84
82784;BME280;72520;55.762;37.780;2023-12-20T05:27:31;98118.97;;;4.74;73.90
82784;BME280;72520;55.762;37.780;2023-12-20T05:30:33;98127.63;;;4.76;74.04
82784;BME280;72520;55.762;37.780;2023-12-20T05:33:36;98122.16;;;4.79;73.92
82784;BME280;72520;55.762;37.780;2023-12-20T05:36:38;98135.09;;;4.82;74.16
82784;BME280;72520;55.762;37.780;2023-12-20T05:39:42;98132.28;;;4.73;74.15
82784;BME280;72520;55.762;37.780;2023-12-20T05:42:44;98134.56;;;4.77;73.80
82784;BME280;72520;55.762;37.780;2023-12-20T05:45:46;98128.88;;;4.83;73.82
82784;BME280;72520;55.762;37.780;2023-12-20T05:48:49;98126.22;;;4.83;73.75
82784;BME280;72520;55.762;37.780;2023-12-20T05:51:52;98134.97;;;4.84;73.87
82784;BME280;72520;55.762;37.780;2023-12-20T05:54:56;98130.78;;;4.81;73.69
82784;BME280;72520;55.762;37.780;2023-12-20T05:57:58;98132.75;;;4.90;73.72
82784;BME280;72520;55.762;37.780;2023-12-20T06:01:01;98137.22;;;4.90;74.06
82784;BME280;72520;55.762;37.780;2023-12-20T06:04:05;98125.63;;;4.92;72.61
82784;BME280;72520;55.762;37.780;2023-12-20T06:07:07;98137.41;;;4.99;72.30
82784;BME280;72520;55.762;37.780;2023-12-20T06:10:11;98140.28;;;4.96;72.32
82784;BME280;72520;55.762;37.780;2023-12-20T06:13:14;98140.69;;;4.90;71.82
82784;BME280;72520;55.762;37.780;2023-12-20T06:16:17;98140.91;;;5.00;72.87
82784;BME280;72520;55.762;37.780;2023-12-20T06:19:20;98156.38;;;5.04;71.59
82784;BME280;72520;55.762;37.780;2023-12-20T06:22:39;98145.53;;;5.09;71.50
82784;BME280;72520;55.762;37.780;2023-12-20T06:25:41;98145.22;;;5.01;71.78
82784;BME280;72520;55.762;37.780;2023-12-20T06:28:44;98153.13;;;5.01;71.79
82784;BME280;72520;55.762;37.780;2023-12-20T06:31:47;98142.91;;;4.96;72.10
82784;BME280;72520;55.762;37.780;2023-12-20T06:34:49;98149.63;;;5.00;71.66
82784;BME280;72520;55.762;37.780;2023-12-20T06:37:52;98150.75;;;6.07;69.18
82784;BME280;72520;55.762;37.780;2023-12-20T06:40:55;98152.47;;;5.95;68.66
82784;BME280;72520;55.762;37.780;2023-12-20T06:43:58;98142.09;;;5.69;68.75
82784;BME280;72520;55.762;37.780;2023-12-20T06:47:00;98148.22;;;5.69;69.13
82784;BME280;72520;55.762;37.780;2023-12-20T06:50:02;98141.06;;;5.71;69.53
82784;BME280;72520;55.762;37.780;2023-12-20T06:53:06;98146.63;;;5.92;69.14
82784;BME280;72520;55.762;37.780;2023-12-20T06:56:10;98149.66;;;5.86;69.03
82784;BME280;72520;55.762;37.780;2023-12-20T06:59:13;98144.41;;;5.73;69.22
82784;BME280;72520;55.762;37.780;2023-12-20T07:02:16;98142.84;;;5.71;68.71
82784;BME280;72520;55.762;37.780;2023-12-20T07:05:18;98135.25;;;5.66;68.86
82784;BME280;72520;55.762;37.780;2023-12-20T07:08:22;98140.97;;;5.60;68.80
82784;BME280;72520;55.762;37.780;2023-12-20T07:11:25;98156.59;;;5.63;68.90
82784;BME280;72520;55.762;37.780;2023-12-20T07:14:27;98152.66;;;5.69;68.73
82784;BME280;72520;55.762;37.780;2023-12-20T07:17:29;98159.34;;;5.85;68.60
82784;BME280;72520;55.762;37.780;2023-12-20T07:20:33;98158.16;;;5.78;68.01
82784;BME280;72520;55.762;37.780;2023-12-20T07:23:37;98160.72;;;5.67;69.00
82784;BME280;72520;55.762;37.780;2023-12-20T07:26:39;98159.00;;;5.66;68.43
82784;BME280;72520;55.762;37.780;2023-12-20T07:29:41;98169.78;;;5.63;69.11
82784;BME280;72520;55.762;37.780;2023-12-20T07:32:44;98164.50;;;5.63;68.74
82784;BME280;72520;55.762;37.780;2023-12-20T07:35:46;98165.91;;;5.56;69.78
82784;BME280;72520;55.762;37.780;2023-12-20T07:38:50;98175.88;;;5.40;69.63
82784;BME280;72520;55.762;37.780;2023-12-20T07:41:52;98181.38;;;5.37;70.02
82784;BME280;72520;55.762;37.780;2023-12-20T07:44:54;98180.28;;;5.39;70.27
82784;BME280;72520;55.762;37.780;2023-12-20T07:47:56;98178.16;;;5.57;69.55
82784;BME280;72520;55.762;37.780;2023-12-20T07:50:59;98185.94;;;5.71;69.34
82784;BME280;72520;55.762;37.780;2023-12-20T07:54:02;98186.88;;;5.70;68.91
82784;BME280;72520;55.762;37.780;2023-12-20T07:57:05;98188.22;;;5.76;68.94
82784;BME280;72520;55.762;37.780;2023-12-20T08:00:08;98185.41;;;5.66;70.12
82784;BME280;72520;55.762;37.780;2023-12-20T08:03:12;98191.13;;;5.60;69.31
82784;BME280;72520;55.762;37.780;2023-12-20T08:06:14;98191.22;;;5.58;70.11
82784;BME280;72520;55.762;37.780;2023-12-20T08:09:19;98192.81;;;5.48;69.43
82784;BME280;72520;55.762;37.780;2023-12-20T08:12:21;98186.16;;;5.55;69.27
82784;BME280;72520;55.762;37.780;2023-12-20T08:15:23;98191.34;;;5.57;69.35
82784;BME280;72520;55.762;37.780;2023-12-20T08:18:25;98193.72;;;5.73;69.02
82784;BME280;72520;55.762;37.780;2023-12-20T08:21:27;98200.06;;;5.70;69.06
82784;BME280;72520;55.762;37.780;2023-12-20T08:24:31;98179.44;;;5.75;69.10
82784;BME280;72520;55.762;37.780;2023-12-20T08:27:34;98198.25;;;5.83;68.49
82784;BME280;72520;55.762;37.780;2023-12-20T08:30:36;98193.69;;;5.85;68.22
82784;BME280;72520;55.762;37.780;2023-12-20T08:33:38;98181.91;;;5.78;68.38
82784;BME280;72520;55.762;37.780;2023-12-20T08:36:40;98190.31;;;5.83;68.86
82784;BME280;72520;55.762;37.780;2023-12-20T08:39:44;98182.81;;;5.90;68.69
82784;BME280;72520;55.762;37.780;2023-12-20T08:42:47;98188.41;;;5.85;69.18
82784;BME280;72520;55.762;37.780;2023-12-20T08:45:49;98181.44;;;5.84;68.25
82784;BME280;72520;55.762;37.780;2023-12-20T08:48:51;98174.59;;;5.94;68.09
82784;BME280;72520;55.762;37.780;2023-12-20T08:51:54;98187.88;;;5.93;68.48
82784;BME280;72520;55.762;37.780;2023-12-20T08:54:57;98185.47;;;5.90;68.65
82784;BME280;72520;55.762;37.780;2023-12-20T08:57:59;98182.19;;;5.86;69.23
82784;BME280;72520;55.762;37.780;2023-12-20T09:01:02;98167.72;;;5.79;68.52
82784;BME280;72520;55.762;37.780;2023-12-20T09:04:04;98176.81;;;5.88;68.94
82784;BME280;72520;55.762;37.780;2023-12-20T09:07:07;98171.53;;;5.75;69.03
82784;BME280;72520;55.762;37.780;2023-12-20T09:10:10;98179.47;;;5.88;69.05
82784;BME280;72520;55.762;37.780;2023-12-20T09:13:13;98175.84;;;5.89;69.52
82784;BME280;72520;55.762;37.780;2023-12-20T09:16:16;98171.66;;;5.86;69.52
82784;BME280;72520;55.762;37.780;2023-12-20T09:19:18;98174.28;;;5.86;69.81
82784;BME280;72520;55.762;37.780;2023-12-20T09:22:21;98174.59;;;5.82;69.78
82784;BME280;72520;55.762;37.780;2023-12-20T09:25:25;98170.88;;;5.84;70.14
82784;BME280;72520;55.762;37.780;2023-12-20T09:28:27;98171.66;;;5.86;69.63
82784;BME280;72520;55.762;37.780;2023-12-20T09:31:30;98175.31;;;5.96;70.08
82784;BME280;72520;55.762;37.780;2023-12-20T09:34:32;98180.31;;;5.88;69.97
82784;BME280;72520;55.762;37.780;2023-12-20T09:37:34;98170.13;;;5.82;70.17
82784;BME280;72520;55.762;37.780;2023-12-20T09:40:39;98177.69;;;5.88;70.37
82784;BME280;72520;55.762;37.780;2023-12-20T09:43:43;98179.88;;;5.82;70.56
82784;BME280;72520;55.762;37.780;2023-12-20T09:46:50;98168.91;;;5.75;70.89
82784;BME280;72520;55.762;37.780;2023-12-20T09:49:52;98178.72;;;5.73;71.14
82784;BME280;72520;55.762;37.780;2023-12-20T09:52:56;98171.44;;;5.77;70.78
82784;BME280;72520;55.762;37.780;2023-12-20T09:56:02;98176.63;;;5.78;71.00
82784;BME280;72520;55.762;37.780;2023-12-20T09:59:05;98177.78;;;5.74;70.83
82784;BME280;72520;55.762;37.780;2023-12-20T10:02:12;98178.72;;;5.73;70.95
82784;BME280;72520;55.762;37.780;2023-12-20T10:05:17;98170.19;;;5.70;71.64
82784;BME280;72520;55.762;37.780;2023-12-20T10:08:21;98179.44;;;5.75;71.17
82784;BME280;72520;55.762;37.780;2023-12-20T10:11:25;98182.75;;;5.66;71.26
82784;BME280;72520;55.762;37.780;2023-12-20T10:14:28;98187.09;;;5.67;71.70
82784;BME280;72520;55.762;37.780;2023-12-20T10:17:31;98193.84;;;5.71;71.33
82784;BME280;72520;55.762;37.780;2023-12-20T10:20:34;98198.25;;;5.83;71.02
82784;BME280;72520;55.762;37.780;2023-12-20T10:23:36;98187.28;;;5.77;70.99
82784;BME280;72520;55.762;37.780;2023-12-20T10:26:41;98193.50;;;5.76;71.34
82784;BME280;72520;55.762;37.780;2023-12-20T10:29:43;98187.81;;;5.69;71.28
82784;BME280;72520;55.762;37.780;2023-12-20T10:32:46;98193.28;;;5.79;71.20
82784;BME280;72520;55.762;37.780;2023-12-20T10:35:48;98185.94;;;5.71;71.39
82784;BME280;72520;55.762;37.780;2023-12-20T10:38:52;98190.81;;;5.64;71.43
82784;BME280;72520;55.762;37.780;2023-12-20T10:41:56;98190.38;;;5.71;71.61
82784;BME280;72520;55.762;37.780;2023-12-20T10:44:59;98186.44;;;5.76;70.92
82784;BME280;72520;55.762;37.780;2023-12-20T10:48:02;98186.97;;;5.69;71.17
82784;BME280;72520;55.762;37.780;2023-12-20T10:51:05;98184.25;;;5.70;72.08
82784;BME280;72520;55.762;37.780;2023-12-20T10:54:08;98194.06;;;5.68;71.46
82784;BME280;72520;55.762;37.780;2023-12-20T10:57:11;98175.66;;;5.79;71.03
82784;BME280;72520;55.762;37.780;2023-12-20T11:00:16;98180.97;;;5.67;71.05
82784;BME280;72520;55.762;37.780;2023-12-20T11:03:20;98187.59;;;5.72;70.98
82784;BME280;72520;55.762;37.780;2023-12-20T11:06:35;98189.97;;;5.64;71.67
82784;BME280;72520;55.762;37.780;2023-12-20T11:09:41;98196.91;;;5.65;71.39
82784;BME280;72520;55.762;37.780;2023-12-20T11:12:53;98188.88;;;5.67;71.36
82784;BME280;72520;55.762;37.780;2023-12-20T11:15:56;98191.25;;;5.82;71.16
82784;BME280;72520;55.762;37.780;2023-12-20T11:19:04;98176.63;;;5.78;70.39
82784;BME280;72520;55.762;37.780;2023-12-20T11:22:07;98185.41;;;5.66;71.28
82784;BME280;72520;55.762;37.780;2023-12-20T11:25:11;98185.72;;;5.74;71.21
82784;BME280;72520;55.762;37.780;2023-12-20T11:28:15;98179.72;;;5.59;71.07
82784;BME280;72520;55.762;37.780;2023-12-20T11:31:22;98178.56;;;5.63;70.49
82784;BME280;72520;55.762;37.780;2023-12-20T11:34:27;98163.44;;;5.65;71.05
82784;BME280;72520;55.762;37.780;2023-12-20T11:37:31;98166.75;;;5.56;70.85
82784;BME280;72520;55.762;37.780;2023-12-20T11:40:34;98156.38;;;5.66;70.76
82784;BME280;72520;55.762;37.780;2023-12-20T11:43:39;98164.34;;;5.53;71.31
82784;BME280;72520;55.762;37.780;2023-12-20T11:46:41;98168.84;;;5.51;71.85
82784;BME280;72520;55.762;37.780;2023-12-20T11:49:43;98174.13;;;5.51;71.46
82784;BME280;72520;55.762;37.780;2023-12-20T11:52:46;98167.81;;;5.54;71.74
82784;BME280;72520;55.762;37.780;2023-12-20T11:55:48;98182.38;;;5.59;71.66
82784;BME280;72520;55.762;37.780;2023-12-20T11:58:52;98182.47;;;5.58;71.31
82784;BME280;72520;55.762;37.780;2023-12-20T12:01:54;98195.16;;;5.53;71.14
82784;BME280;72520;55.762;37.780;2023-12-20T12:05:01;98178.50;;;5.76;71.29
82784;BME280;72520;55.762;37.780;2023-12-20T12:08:06;98188.13;;;5.77;71.56
82784;BME280;72520;55.762;37.780;2023-12-20T12:11:08;98185.72;;;5.74;71.48
82784;BME280;72520;55.762;37.780;2023-12-20T12:14:12;98189.75;;;5.67;71.61
82784;BME280;72520;55.762;37.780;2023-12-20T12:17:15;98199.34;;;5.68;71.39
82784;BME280;72520;55.762;37.780;2023-12-20T12:20:20;98196.91;;;5.65;71.34
82784;BME280;72520;55.762;37.780;2023-12-20T12:23:23;98190.69;;;5.66;72.24
82784;BME280;72520;55.762;37.780;2023-12-20T12:26:25;98199.94;;;5.84;71.69
82784;BME280;72520;55.762;37.780;2023-12-20T12:29:29;98204.63;;;5.68;71.76
82784;BME280;72520;55.762;37.780;2023-12-20T12:32:31;98204.41;;;5.58;72.49
82784;BME280;72520;55.762;37.780;2023-12-20T12:35:34;98207.91;;;5.59;72.68
82784;BME280;72520;55.762;37.780;2023-12-20T12:38:36;98221.84;;;5.61;72.55
82784;BME280;72520;55.762;37.780;2023-12-20T12:41:39;98226.81;;;5.53;72.71
82784;BME280;72520;55.762;37.780;2023-12-20T12:44:43;98230.84;;;5.46;73.40
82784;BME280;72520;55.762;37.780;2023-12-20T12:47:46;98228.22;;;5.33;73.67
82784;BME280;72520;55.762;37.780;2023-12-20T12:50:48;98239.63;;;5.34;74.19
82784;BME280;72520;55.762;37.780;2023-12-20T12:53:53;98232.00;;;5.42;73.72
82784;BME280;72520;55.762;37.780;2023-12-20T12:56:55;98241.81;;;5.52;74.05
82784;BME280;72520;55.762;37.780;2023-12-20T12:59:59;98245.78;;;5.58;73.12
82784;BME280;72520;55.762;37.780;2023-12-20T13:03:05;98240.97;;;5.52;73.10
82784;BME280;72520;55.762;37.780;2023-12-20T13:06:07;98237.59;;;5.50;73.68
82784;BME280;72520;55.762;37.780;2023-12-20T13:09:09;98236.34;;;5.30;73.35
82784;BME280;72520;55.762;37.780;2023-12-20T13:12:12;98245.19;;;5.29;74.18
82784;BME280;72520;55.762;37.780;2023-12-20T13:15:16;98237.03;;;7.79;65.89
82784;BME280;72520;55.762;37.780;2023-12-20T13:18:18;98232.50;;;6.91;68.45
82784;BME280;72520;55.762;37.780;2023-12-20T13:21:20;98238.69;;;6.44;70.11
82784;BME280;72520;55.762;37.780;2023-12-20T13:24:22;98242.81;;;6.24;70.74
82784;BME280;72520;55.762;37.780;2023-12-20T13:27:24;98238.59;;;5.98;71.01
82784;BME280;72520;55.762;37.780;2023-12-20T13:30:28;98235.91;;;5.85;72.07
82784;BME280;72520;55.762;37.780;2023-12-20T13:33:30;98240.50;;;5.58;72.34
82784;BME280;72520;55.762;37.780;2023-12-20T13:36:32;98243.09;;;6.08;72.80
82784;BME280;72520;55.762;37.780;2023-12-20T13:39:35;98238.81;;;5.70;72.63
82784;BME280;72520;55.762;37.780;2023-12-20T13:42:37;98237.69;;;5.48;72.60
82784;BME280;72520;55.762;37.780;2023-12-20T13:45:40;98230.13;;;5.44;73.50
82784;BME280;72520;55.762;37.780;2023-12-20T13:48:42;98236.97;;;5.34;73.12
82784;BME280;72520;55.762;37.780;2023-12-20T13:51:46;98236.00;;;5.35;73.53
82784;BME280;72520;55.762;37.780;2023-12-20T13:54:48;98234.53;;;5.56;73.60
82784;BME280;72520;55.762;37.780;2023-12-20T13:57:50;98228.84;;;5.37;73.50
82784;BME280;72520;55.762;37.780;2023-12-20T14:00:54;98237.38;;;5.28;73.68
82784;BME280;72520;55.762;37.780;2023-12-20T14:03:56;98234.31;;;5.21;74.14
82784;BME280;72520;55.762;37.780;2023-12-20T14:06:58;98251.00;;;5.22;74.29
82784;BME280;72520;55.762;37.780;2023-12-20T14:10:00;98250.78;;;5.25;74.37
82784;BME280;72520;55.762;37.780;2023-12-20T14:13:05;98255.97;;;5.13;73.56
82784;BME280;72520;55.762;37.780;2023-12-20T14:16:08;98267.03;;;5.31;73.38
82784;BME280;72520;55.762;37.780;2023-12-20T14:19:11;98272.44;;;5.17;73.53
82784;BME280;72520;55.762;37.780;2023-12-20T14:22:13;98261.44;;;5.10;74.01
82784;BME280;72520;55.762;37.780;2023-12-20T14:25:17;98270.44;;;5.33;72.88
82784;BME280;72520;55.762;37.780;2023-12-20T14:28:19;98265.75;;;5.24;73.47
82784;BME280;72520;55.762;37.780;2023-12-20T14:31:23;98271.88;;;4.99;74.25
82784;BME280;72520;55.762;37.780;2023-12-20T14:34:25;98273.97;;;5.07;74.13
82784;BME280;72520;55.762;37.780;2023-12-20T14:37:28;98269.16;;;5.13;73.11
82784;BME280;72520;55.762;37.780;2023-12-20T14:40:30;98267.97;;;5.18;73.34
82784;BME280;72520;55.762;37.780;2023-12-20T14:43:32;98268.19;;;5.02;73.68
82784;BME280;72520;55.762;37.780;2023-12-20T14:46:36;98262.78;;;4.91;73.63
82784;BME280;72520;55.762;37.780;2023-12-20T14:49:38;98274.31;;;5.02;73.97
82784;BME280;72520;55.762;37.780;2023-12-20T14:52:41;98277.47;;;5.07;72.47
82784;BME280;72520;55.762;37.780;2023-12-20T14:55:43;98271.97;;;5.10;72.14
82784;BME280;72520;55.762;37.780;2023-12-20T14:58:45;98271.88;;;5.12;72.17
82784;BME280;72520;55.762;37.780;2023-12-20T15:01:49;98275.25;;;5.01;72.79
82784;BME280;72520;55.762;37.780;2023-12-20T15:04:52;98264.56;;;4.90;73.09
82784;BME280;72520;55.762;37.780;2023-12-20T15:07:54;98282.28;;;4.88;73.22
82784;BME280;72520;55.762;37.780;2023-12-20T15:10:56;98285.28;;;5.09;72.12
82784;BME280;72520;55.762;37.780;2023-12-20T15:13:58;98290.13;;;5.02;72.91
82784;BME280;72520;55.762;37.780;2023-12-20T15:17:03;98287.50;;;5.02;72.37
82784;BME280;72520;55.762;37.780;2023-12-20T15:20:06;98292.34;;;4.96;72.70
82784;BME280;72520;55.762;37.780;2023-12-20T15:23:09;98286.22;;;4.95;73.16
82784;BME280;72520;55.762;37.780;2023-12-20T15:26:12;98290.44;;;5.10;72.48
82784;BME280;72520;55.762;37.780;2023-12-20T15:29:14;98287.28;;;5.18;72.04
82784;BME280;72520;55.762;37.780;2023-12-20T15:32:18;98288.56;;;5.12;71.75
82784;BME280;72520;55.762;37.780;2023-12-20T15:35:21;98294.34;;;4.92;72.06
82784;BME280;72520;55.762;37.780;2023-12-20T15:38:23;98279.44;;;4.91;72.16
82784;BME280;72520;55.762;37.780;2023-12-20T15:41:25;98275.47;;;4.98;72.15
82784;BME280;72520;55.762;37.780;2023-12-20T15:44:27;98284.09;;;5.00;71.69
82784;BME280;72520;55.762;37.780;2023-12-20T15:47:31;98294.91;;;5.10;71.53
82784;BME280;72520;55.762;37.780;2023-12-20T15:50:33;98291.06;;;5.01;71.54
82784;BME280;72520;55.762;37.780;2023-12-20T15:53:36;98312.47;;;4.97;71.89
82784;BME280;72520;55.762;37.780;2023-12-20T15:56:38;98312.16;;;5.01;71.51
82784;BME280;72520;55.762;37.780;2023-12-20T15:59:41;98318.81;;;5.07;71.20
82784;BME280;72520;55.762;37.780;2023-12-20T16:02:45;98322.41;;;5.06;71.72
82784;BME280;72520;55.762;37.780;2023-12-20T16:05:47;98336.31;;;5.08;71.84
82784;BME280;72520;55.762;37.780;2023-12-20T16:08:50;98336.13;;;5.11;71.59